Time;durP1;ratioP1;P1;durP2;ratioP2;P2;SDS_P1;SDS_P2;PMS_P1;PMS_P2;Temp;Humidity;BMP_temperature;BMP_pressure;BME280_temperature;BME280_humidity;BME280_pressure;Samples;Min_cycle;Max_cycle;Signal;HPM_P1;HPM_P2
2021/04/28 00:00:41;;;;;;;1.33;0.57;;;14.00;99.90;;;;;;20720000;23;20237;-74
2021/04/28 00:10:44;;;;;;;0.40;0.40;;;13.70;99.90;;;;;;20704323;28;20234;-75
2021/04/28 00:20:48;;;;;;;0.70;0.70;;;13.50;99.90;;;;;;20700467;28;20199;-75
2021/04/28 00:30:52;;;;;;;0.43;0.43;;;13.40;99.90;;;;;;20700152;28;20227;-74
2021/04/28 00:40:54;;;;;;;0.60;0.57;;;13.30;99.90;;;;;;20616086;28;20192;-75
2021/04/28 00:50:58;;;;;;;0.97;0.77;;;13.30;99.90;;;;;;20617857;28;20557;-76
2021/04/28 01:01:01;;;;;;;0.37;0.27;;;13.30;99.90;;;;;;20632736;28;20710;-75
2021/04/28 01:11:05;;;;;;;0.30;0.30;;;13.40;99.90;;;;;;20697599;28;20648;-75
2021/04/28 01:21:08;;;;;;;5.27;1.90;;;13.40;99.90;;;;;;20695607;28;20194;-75
2021/04/28 01:31:13;;;;;;;1.90;1.57;;;13.50;99.90;;;;;;20695146;28;20258;-74
2021/04/28 01:41:17;;;;;;;1.27;1.17;;;13.60;99.90;;;;;;20692997;28;20189;-73
2021/04/28 01:51:21;;;;;;;0.83;0.83;;;13.50;99.90;;;;;;20694066;28;20226;-75
2021/04/28 02:01:27;;;;;;;6.50;0.87;;;13.60;99.90;;;;;;20692939;28;20233;-76
2021/04/28 02:11:31;;;;;;;0.50;0.50;;;13.60;99.90;;;;;;20693910;28;20229;-77
2021/04/28 02:21:33;;;;;;;0.53;0.53;;;13.70;99.90;;;;;;20691858;28;20206;-73
2021/04/28 02:31:38;;;;;;;0.47;0.17;;;13.70;99.90;;;;;;20673921;28;20221;-75
2021/04/28 02:41:42;;;;;;;1.03;0.93;;;13.70;99.90;;;;;;20692943;28;20195;-76
2021/04/28 02:51:47;;;;;;;0.67;0.67;;;13.70;99.90;;;;;;20690603;28;20226;-76
2021/04/28 03:01:51;;;;;;;9.63;2.23;;;13.90;99.90;;;;;;20697492;28;20219;-75
2021/04/28 03:11:55;;;;;;;1.33;0.77;;;14.00;99.90;;;;;;20705240;28;20218;-74
2021/04/28 03:21:59;;;;;;;0.60;0.57;;;14.10;99.90;;;;;;20705386;28;20409;-75
2021/04/28 03:32:04;;;;;;;1.63;0.80;;;14.20;99.90;;;;;;20701998;28;20266;-77
2021/04/28 03:42:08;;;;;;;1.40;1.10;;;14.30;99.90;;;;;;20704111;28;20300;-77
2021/04/28 03:52:12;;;;;;;1.07;0.60;;;14.50;99.90;;;;;;20700962;28;20230;-78
2021/04/28 04:02:14;;;;;;;0.40;0.30;;;14.80;99.90;;;;;;20703354;28;20227;-76
2021/04/28 04:12:18;;;;;;;0.40;0.40;;;15.00;99.90;;;;;;20697934;28;20727;-79
2021/04/28 04:22:21;;;;;;;0.20;0.20;;;15.10;99.90;;;;;;20681727;28;20289;-79
2021/04/28 04:32:24;;;;;;;0.93;0.93;;;15.20;99.90;;;;;;20680319;28;20218;-75
2021/04/28 04:42:27;;;;;;;0.30;0.30;;;15.30;99.90;;;;;;20698488;28;20790;-76
2021/04/28 04:52:30;;;;;;;3.67;0.70;;;15.30;99.90;;;;;;20696182;28;20233;-76
2021/04/28 05:02:33;;;;;;;2.30;1.03;;;15.40;99.90;;;;;;20696257;28;20361;-76
2021/04/28 05:12:37;;;;;;;0.50;0.50;;;15.30;99.90;;;;;;20695911;28;20253;-75
2021/04/28 05:22:40;;;;;;;0.60;0.53;;;15.30;99.90;;;;;;20694900;28;20278;-73
2021/04/28 05:32:48;;;;;;;0.60;0.60;;;15.40;99.90;;;;;;20693181;28;20356;-75
2021/04/28 05:42:51;;;;;;;0.80;0.80;;;15.50;99.90;;;;;;20676536;28;20289;-74
2021/04/28 05:52:54;;;;;;;0.70;0.70;;;15.40;99.90;;;;;;20688574;28;20261;-73
2021/04/28 06:02:57;;;;;;;1.13;0.80;;;15.30;99.90;;;;;;20674081;28;20292;-73
2021/04/28 06:13:00;;;;;;;2.20;1.37;;;15.20;99.90;;;;;;20689743;28;20316;-76
2021/04/28 06:23:04;;;;;;;1.60;1.43;;;15.20;99.90;;;;;;20692189;28;20842;-73
2021/04/28 06:33:07;;;;;;;2.33;1.00;;;15.20;99.90;;;;;;20690190;28;20245;-69
2021/04/28 06:43:10;;;;;;;1.37;1.17;;;14.80;99.90;;;;;;20706183;28;20431;-69
2021/04/28 06:53:26;;;;;;;3.00;1.30;;;14.60;99.90;;;;;;20703948;28;20206;-69
2021/04/28 07:03:29;;;;;;;0.63;0.47;;;14.80;99.90;;;;;;20685116;28;20249;-68
2021/04/28 07:13:33;;;;;;;0.57;0.37;;;15.00;99.90;;;;;;20703967;28;20218;-70
2021/04/28 07:23:36;;;;;;;0.50;0.50;;;14.80;99.90;;;;;;20700839;28;20222;-70
2021/04/28 07:33:40;;;;;;;0.80;0.40;;;14.90;99.90;;;;;;20699517;28;20191;-70
2021/04/28 07:43:42;;;;;;;0.97;0.90;;;15.00;99.90;;;;;;20701328;28;20575;-70
2021/04/28 07:53:47;;;;;;;0.40;0.40;;;15.20;99.90;;;;;;20699072;28;20202;-71
2021/04/28 08:03:49;;;;;;;1.23;0.80;;;15.00;99.90;;;;;;20694340;28;20226;-71
2021/04/28 08:13:53;;;;;;;7.83;1.57;;;14.90;99.90;;;;;;20697617;28;20198;-70
2021/04/28 08:23:56;;;;;;;0.33;0.33;;;15.20;99.90;;;;;;20693495;28;20333;-70
2021/04/28 08:33:59;;;;;;;1.20;1.10;;;15.20;99.90;;;;;;20672505;28;20726;-71
2021/04/28 08:44:06;;;;;;;2.93;1.43;;;15.40;99.90;;;;;;20697122;28;21163;-70
2021/04/28 08:54:10;;;;;;;3.20;1.33;;;15.80;99.90;;;;;;20696793;28;20300;-72
2021/04/28 09:04:14;;;;;;;0.70;0.70;;;16.40;99.90;;;;;;20692297;28;20726;-73
2021/04/28 09:14:23;;;;;;;4.00;1.47;;;16.60;99.90;;;;;;20694572;28;20632;-69
2021/04/28 09:24:28;;;;;;;1.07;1.07;;;16.50;99.90;;;;;;20692718;28;20223;-70
2021/04/28 09:34:36;;;;;;;0.97;0.60;;;16.90;99.90;;;;;;20678207;28;20371;-69
2021/04/28 09:44:45;;;;;;;1.20;1.10;;;17.40;99.90;;;;;;20692939;28;20716;-72
2021/04/28 09:54:49;;;;;;;0.53;0.53;;;17.90;99.90;;;;;;20694718;28;20671;-70
2021/04/28 10:04:52;;;;;;;0.63;0.63;;;18.20;99.90;;;;;;20690876;28;20317;-71
2021/04/28 10:14:58;;;;;;;0.97;0.97;;;18.00;99.90;;;;;;20693643;28;20211;-71
2021/04/28 10:25:06;;;;;;;0.47;0.47;;;18.40;99.90;;;;;;20674778;28;20428;-72
2021/04/28 10:35:13;;;;;;;3.53;0.93;;;18.50;99.90;;;;;;20690197;28;20194;-71
2021/04/28 10:45:37;;;;;;;1.17;0.70;;;18.50;99.90;;;;;;20691979;28;20611;-72
2021/04/28 10:55:45;;;;;;;0.97;0.83;;;18.30;99.90;;;;;;20691099;28;20199;-69
2021/04/28 11:05:47;;;;;;;3.47;0.90;;;18.40;99.90;;;;;;20691680;28;20620;-72
2021/04/28 11:15:53;;;;;;;0.93;0.93;;;18.70;99.90;;;;;;20672367;28;20195;-71
2021/04/28 11:26:24;;;;;;;0.63;0.63;;;18.30;99.90;;;;;;20701535;28;20564;-70
2021/04/28 11:36:27;;;;;;;0.67;0.40;;;17.90;99.90;;;;;;20706844;28;20202;-71
2021/04/28 11:46:32;;;;;;;3.10;1.03;;;17.70;99.90;;;;;;20705033;28;20219;-72
2021/04/28 11:56:39;;;;;;;0.50;0.50;;;17.80;99.90;;;;;;20692397;28;20203;-73
2021/04/28 12:06:44;;;;;;;0.77;0.70;;;17.60;99.90;;;;;;20687431;28;20429;-72
2021/04/28 12:16:55;;;;;;;0.40;0.40;;;17.80;99.90;;;;;;20700566;28;20198;-71
2021/04/28 12:27:10;;;;;;;1.07;1.00;;;17.80;99.90;;;;;;20699362;28;20300;-73
2021/04/28 12:37:24;;;;;;;0.57;0.40;;;17.70;99.90;;;;;;20700164;28;20729;-73
2021/04/28 12:47:30;;;;;;;0.80;0.80;;;17.90;99.90;;;;;;20681647;28;20225;-73
2021/04/28 12:57:35;;;;;;;0.20;0.20;;;19.10;99.90;;;;;;20695667;28;20690;-70
2021/04/28 13:07:38;;;;;;;0.43;0.43;;;22.70;99.90;;;;;;20697325;28;20226;-71
2021/04/28 13:18:01;;;;;;;0.70;0.60;;;23.10;99.90;;;;;;20678839;28;20572;-73
2021/04/28 13:28:29;;;;;;;1.40;1.20;;;23.60;99.90;;;;;;20698251;28;20249;-75
2021/04/28 13:38:48;;;;;;;0.50;0.30;;;24.00;99.90;;;;;;20679776;28;20205;-70
2021/04/28 13:48:50;;;;;;;1.38;0.75;;;24.70;99.90;;;;;;20676587;28;20215;-71
2021/04/28 13:58:54;;;;;;;0.30;0.20;;;25.00;99.90;;;;;;20675326;28;20831;-72
2021/04/28 14:08:57;;;;;;;0.43;0.40;;;24.80;99.90;;;;;;20691453;28;20242;-72
2021/04/28 14:19:01;;;;;;;0.20;0.20;;;25.50;99.90;;;;;;20693206;28;20191;-74
2021/04/28 14:29:04;;;;;;;0.20;0.20;;;26.20;99.90;;;;;;20692298;28;20226;-72
2021/04/28 14:39:09;;;;;;;2.97;0.43;;;25.40;99.90;;;;;;20675493;28;20191;-69
2021/04/28 14:49:12;;;;;;;0.83;0.80;;;21.90;99.90;;;;;;20692287;28;20332;-70
2021/04/28 14:59:16;;;;;;;0.30;0.30;;;24.90;99.90;;;;;;20726923;28;20583;-68
2021/04/28 15:09:21;;;;;;;0.45;0.45;;;25.30;99.90;;;;;;20709171;28;20245;-70
2021/04/28 15:19:26;;;;;;;0.30;0.30;;;25.60;99.90;;;;;;20704908;28;20207;-73
2021/04/28 15:29:29;;;;;;;0.88;0.65;;;25.40;99.90;;;;;;20672950;28;20711;-71
2021/04/28 15:39:33;;;;;;;1.20;1.10;;;25.20;99.90;;;;;;20701359;28;20960;-71
2021/04/28 15:49:35;;;;;;;0.32;0.32;;;25.10;99.90;;;;;;20702504;28;20406;-72
2021/04/28 15:59:39;;;;;;;3.73;1.03;;;24.40;99.90;;;;;;20700242;28;20548;-71
2021/04/28 16:09:42;;;;;;;0.63;0.63;;;23.30;99.90;;;;;;20700855;28;20227;-75
2021/04/28 16:19:46;;;;;;;1.07;1.03;;;22.10;99.90;;;;;;20699860;28;20639;-71
2021/04/28 16:29:49;;;;;;;1.37;0.63;;;20.40;99.90;;;;;;20699370;28;20927;-72
2021/04/28 16:39:52;;;;;;;1.90;1.07;;;20.00;99.90;;;;;;20696546;28;20664;-71
2021/04/28 16:49:55;;;;;;;0.83;0.83;;;19.90;99.90;;;;;;20699125;28;20222;-72
2021/04/28 16:59:59;;;;;;;1.53;0.70;;;19.60;99.90;;;;;;20680816;28;20278;-72
2021/04/28 17:10:03;;;;;;;0.30;0.30;;;20.00;99.90;;;;;;20698014;28;20238;-70
2021/04/28 17:20:12;;;;;;;6.43;0.80;;;21.10;99.90;;;;;;20695933;28;20206;-71
2021/04/28 17:30:15;;;;;;;0.53;0.47;;;23.00;99.90;;;;;;20697741;28;20218;-72
2021/04/28 17:40:19;;;;;;;0.33;0.23;;;22.70;99.90;;;;;;20694161;28;20207;-72
2021/04/28 17:50:22;;;;;;;0.57;0.57;;;22.50;99.90;;;;;;20698253;28;20226;-71
2021/04/28 18:00:31;;;;;;;0.73;0.67;;;20.40;99.90;;;;;;20693364;28;20318;-72
2021/04/28 18:10:34;;;;;;;0.70;0.70;;;18.80;99.90;;;;;;20695748;28;20229;-72
2021/04/28 18:20:38;;;;;;;0.47;0.33;;;18.00;99.90;;;;;;20694839;28;20191;-73
2021/04/28 18:30:45;;;;;;;5.27;2.47;;;17.80;99.90;;;;;;20701639;28;20221;-74
2021/04/28 18:40:49;;;;;;;1.13;0.93;;;17.60;99.90;;;;;;20721006;28;20997;-73
2021/04/28 18:50:52;;;;;;;0.90;0.90;;;17.60;99.90;;;;;;20723155;28;20738;-73
2021/04/28 19:00:55;;;;;;;1.03;0.80;;;17.50;99.90;;;;;;20704883;28;20231;-73
2021/04/28 19:10:58;;;;;;;0.83;0.67;;;17.40;99.90;;;;;;20713073;28;20230;-75
2021/04/28 19:21:03;;;;;;;2.10;0.50;;;17.30;99.90;;;;;;20703833;28;20213;-74
2021/04/28 19:31:05;;;;;;;1.53;1.20;;;17.30;99.90;;;;;;20699815;28;20646;-73
2021/04/28 19:41:11;;;;;;;1.00;0.80;;;17.30;99.90;;;;;;20666871;28;20203;-74
2021/04/28 19:51:13;;;;;;;0.20;0.10;;;17.10;99.90;;;;;;20715554;28;20229;-74
2021/04/28 20:01:17;;;;;;;0.93;0.93;;;17.00;99.90;;;;;;20741718;28;20761;-73
2021/04/28 20:11:20;;;;;;;2.83;1.20;;;16.90;99.90;;;;;;20703947;28;20223;-74
2021/04/28 20:21:24;;;;;;;0.30;0.30;;;16.90;99.90;;;;;;20703934;28;20670;-72
2021/04/28 20:31:27;;;;;;;3.90;0.70;;;16.90;99.90;;;;;;20702104;28;20222;-75
2021/04/28 20:41:31;;;;;;;0.90;0.57;;;17.00;99.90;;;;;;20700325;28;20206;-73
2021/04/28 20:51:33;;;;;;;0.90;0.83;;;16.70;99.90;;;;;;20680818;28;20222;-71
2021/04/28 21:01:38;;;;;;;1.80;1.03;;;16.40;99.90;;;;;;20699817;28;20480;-72
2021/04/28 21:11:41;;;;;;;2.47;1.60;;;16.30;99.90;;;;;;20697004;28;20688;-73
2021/04/28 21:21:44;;;;;;;2.33;0.97;;;16.10;99.90;;;;;;20698349;28;20293;-72
2021/04/28 21:31:51;;;;;;;0.97;0.90;;;15.90;99.90;;;;;;20677997;28;20222;-73
2021/04/28 21:41:57;;;;;;;0.67;0.60;;;16.10;99.90;;;;;;20696117;28;20202;-73
2021/04/28 21:52:00;;;;;;;1.73;1.30;;;16.10;99.90;;;;;;20693664;28;20254;-73
2021/04/28 22:02:04;;;;;;;0.67;0.67;;;16.00;99.90;;;;;;20694125;28;20402;-71
2021/04/28 22:12:08;;;;;;;0.43;0.37;;;15.70;99.90;;;;;;20694390;28;20226;-71
2021/04/28 22:22:12;;;;;;;1.60;0.80;;;15.40;99.90;;;;;;20694079;28;20198;-70
2021/04/28 22:32:14;;;;;;;1.10;1.00;;;15.50;99.90;;;;;;20691471;28;20575;-73
2021/04/28 22:42:18;;;;;;;0.27;0.27;;;15.50;99.90;;;;;;20693904;28;20218;-71
2021/04/28 22:52:20;;;;;;;0.93;0.83;;;15.50;99.90;;;;;;20691801;28;20242;-72
2021/04/28 23:02:24;;;;;;;1.63;1.17;;;15.60;99.90;;;;;;20694362;28;20740;-73
2021/04/28 23:12:27;;;;;;;0.30;0.30;;;15.60;99.90;;;;;;20673776;28;20234;-73
2021/04/28 23:22:31;;;;;;;0.20;0.17;;;15.60;99.90;;;;;;20686041;28;20202;-73
2021/04/28 23:32:34;;;;;;;0.57;0.43;;;15.60;99.90;;;;;;20704935;28;20242;-72
2021/04/28 23:42:37;;;;;;;0.50;0.47;;;15.60;99.90;;;;;;20706292;28;20207;-73
2021/04/28 23:52:40;;;;;;;0.50;0.40;;;15.50;99.90;;;;;;20702193;28;20586;-73
